createdAt,value
2019-05-22T00:02:34.987Z,13.35
2019-05-22T00:05:14.427Z,13.25
2019-05-22T00:07:47.898Z,13.09
2019-05-22T00:10:23.658Z,13.24
2019-05-22T00:12:56.935Z,13.27
2019-05-22T00:15:30.102Z,13.23
2019-05-22T00:18:03.875Z,13.23
2019-05-22T00:20:36.424Z,13.16
2019-05-22T00:23:10.392Z,13.14
2019-05-22T00:25:43.618Z,13.09
2019-05-22T00:28:16.886Z,13.05
2019-05-22T00:30:49.828Z,13.05
2019-05-22T00:33:22.285Z,13.01
2019-05-22T00:35:56.090Z,12.95
2019-05-22T00:38:28.791Z,13.05
2019-05-22T00:41:07.786Z,13.02
2019-05-22T00:43:42.131Z,13.02
2019-05-22T00:46:19.481Z,13.14
2019-05-22T00:48:52.193Z,13.08
2019-05-22T00:51:40.923Z,13.02
2019-05-22T00:54:21.302Z,13.00
2019-05-22T00:57:03.212Z,12.94
2019-05-22T00:59:37.440Z,13.03
2019-05-22T01:02:10.280Z,13.02
2019-05-22T01:04:42.298Z,12.78
2019-05-22T01:07:21.367Z,12.94
2019-05-22T01:09:56.645Z,13.02
2019-05-22T01:12:29.588Z,12.96
2019-05-22T01:15:06.336Z,12.93
2019-05-22T01:17:38.157Z,12.79
2019-05-22T01:20:12.943Z,12.96
2019-05-22T01:22:47.433Z,13.02
2019-05-22T01:25:22.009Z,12.99
2019-05-22T01:27:53.464Z,12.81
2019-05-22T01:30:31.458Z,12.97
2019-05-22T01:33:07.307Z,13.03
2019-05-22T01:35:40.266Z,13.02
2019-05-22T01:38:13.930Z,13.03
2019-05-22T01:40:53.551Z,13.01
2019-05-22T01:43:26.130Z,12.91
2019-05-22T01:46:00.854Z,12.96
2019-05-22T01:48:36.838Z,13.02
2019-05-22T01:51:10.669Z,13.00
2019-05-22T01:53:43.888Z,13.00
2019-05-22T01:56:16.989Z,12.97
2019-05-22T01:58:49.862Z,12.96
2019-05-22T02:01:24.339Z,12.88
2019-05-22T02:03:56.741Z,12.94
2019-05-22T02:06:28.334Z,12.99
2019-05-22T02:09:16.580Z,12.88
2019-05-22T02:11:52.183Z,12.71
2019-05-22T02:14:25.465Z,12.82
2019-05-22T02:16:58.181Z,12.81
2019-05-22T02:19:29.558Z,12.95
2019-05-22T02:22:02.146Z,12.82
2019-05-22T02:24:34.445Z,12.77
2019-05-22T02:27:06.100Z,12.75
2019-05-22T02:29:38.015Z,12.71
2019-05-22T02:32:11.486Z,12.73
2019-05-22T02:34:44.244Z,12.73
2019-05-22T02:37:17.202Z,12.68
2019-05-22T02:39:50.314Z,12.71
2019-05-22T02:42:26.827Z,12.75
2019-05-22T02:44:58.701Z,12.71
2019-05-22T02:47:30.535Z,12.73
2019-05-22T02:50:01.731Z,12.80
2019-05-22T02:52:35.454Z,12.69
2019-05-22T02:55:06.789Z,12.69
2019-05-22T02:57:37.817Z,12.73
2019-05-22T03:00:09.269Z,12.72
2019-05-22T03:02:50.143Z,12.79
2019-05-22T03:05:23.071Z,12.62
2019-05-22T03:07:54.718Z,12.64
2019-05-22T03:10:26.601Z,12.53
2019-05-22T03:12:58.491Z,12.50
2019-05-22T03:15:29.586Z,12.45
2019-05-22T03:18:05.207Z,12.46
2019-05-22T03:20:37.730Z,12.26
2019-05-22T03:23:40.470Z,12.18
2019-05-22T03:26:13.303Z,12.23
2019-05-22T03:28:45.954Z,12.27
2019-05-22T03:31:18.746Z,12.34
2019-05-22T03:33:49.772Z,12.37
2019-05-22T03:36:22.369Z,12.57
2019-05-22T03:38:53.732Z,12.60
2019-05-22T03:41:24.975Z,12.33
2019-05-22T03:43:58.552Z,12.49
2019-05-22T03:46:40.088Z,12.41
2019-05-22T03:49:29.285Z,12.34
2019-05-22T03:51:49.241Z,12.39
2019-05-22T03:54:21.837Z,12.31
2019-05-22T03:56:54.399Z,12.44
2019-05-22T03:59:25.848Z,12.19
2019-05-22T04:01:57.287Z,12.19
2019-05-22T04:04:36.790Z,12.15
2019-05-22T04:07:10.980Z,12.18
2019-05-22T04:09:45.075Z,12.19
2019-05-22T04:12:16.922Z,12.11
2019-05-22T04:14:48.403Z,12.19
2019-05-22T04:17:21.464Z,12.20
2019-05-22T04:19:52.755Z,12.29
2019-05-22T04:22:24.489Z,12.21
2019-05-22T04:24:55.977Z,12.27
2019-05-22T04:27:27.819Z,12.19
2019-05-22T04:29:59.116Z,12.23
2019-05-22T04:32:33.121Z,12.17
2019-05-22T04:35:07.082Z,12.32
2019-05-22T04:37:38.497Z,12.28
2019-05-22T04:40:48.792Z,12.22
2019-05-22T04:43:23.938Z,12.18
2019-05-22T04:45:56.896Z,12.23
2019-05-22T04:48:29.341Z,12.14
2019-05-22T04:51:19.896Z,12.10
2019-05-22T04:53:51.230Z,11.85
2019-05-22T04:56:23.715Z,11.91
2019-05-22T04:58:55.294Z,12.12
2019-05-22T05:01:27.533Z,12.01
2019-05-22T05:03:58.913Z,12.10
2019-05-22T05:06:33.114Z,12.12
2019-05-22T05:09:10.113Z,12.10
2019-05-22T05:11:41.348Z,12.19
2019-05-22T05:14:12.434Z,12.16
2019-05-22T05:16:43.620Z,11.96
2019-05-22T05:19:14.715Z,11.98
2019-05-22T05:21:46.795Z,12.12
2019-05-22T05:24:17.935Z,12.06
2019-05-22T05:26:50.441Z,12.15
2019-05-22T05:29:31.079Z,12.35
2019-05-22T05:32:03.290Z,12.35
2019-05-22T05:34:59.798Z,12.30
2019-05-22T05:37:31.562Z,12.39
2019-05-22T05:40:28.975Z,12.22
2019-05-22T05:43:00.962Z,12.15
2019-05-22T05:45:33.705Z,12.19
2019-05-22T05:48:07.282Z,12.29
2019-05-22T05:50:40.684Z,12.37
2019-05-22T05:53:16.749Z,12.37
2019-05-22T05:56:13.517Z,12.32
2019-05-22T05:58:45.637Z,12.21
2019-05-22T06:01:28.131Z,12.35
2019-05-22T06:03:59.732Z,12.44
2019-05-22T06:07:15.760Z,12.40
2019-05-22T06:09:55.883Z,12.36
2019-05-22T06:12:27.206Z,12.36
2019-05-22T06:14:58.717Z,12.37
2019-05-22T06:18:08.615Z,12.27
2019-05-22T06:20:41.247Z,12.55
2019-05-22T06:23:52.272Z,12.43
2019-05-22T06:27:11.216Z,12.49
2019-05-22T06:30:13.630Z,12.63
2019-05-22T06:33:21.521Z,12.37
2019-05-22T06:35:52.816Z,12.37
2019-05-22T06:38:47.113Z,12.36
2019-05-22T06:41:18.907Z,12.36
2019-05-22T06:44:28.773Z,12.41
2019-05-22T06:46:59.961Z,12.59
2019-05-22T06:49:44.591Z,12.59
2019-05-22T06:52:15.943Z,12.55
2019-05-22T06:54:48.631Z,12.54
2019-05-22T06:57:26.701Z,12.83
2019-05-22T07:00:14.080Z,12.71
2019-05-22T07:02:35.943Z,12.76
2019-05-22T07:05:07.497Z,12.80
2019-05-22T07:07:39.335Z,12.63
2019-05-22T07:10:15.151Z,12.65
2019-05-22T07:12:50.506Z,12.48
2019-05-22T07:15:28.844Z,12.58
2019-05-22T07:18:01.331Z,12.54
2019-05-22T07:20:35.603Z,12.47
2019-05-22T07:23:07.917Z,12.40
2019-05-22T07:25:42.039Z,12.31
2019-05-22T07:28:14.129Z,12.26
2019-05-22T07:30:45.921Z,12.51
2019-05-22T07:33:17.984Z,12.40
2019-05-22T07:36:08.677Z,12.61
2019-05-22T07:38:22.715Z,12.74
2019-05-22T07:40:53.973Z,12.97
2019-05-22T07:43:25.283Z,13.13
2019-05-22T07:45:57.763Z,12.79
2019-05-22T07:48:29.592Z,12.93
2019-05-22T07:51:01.479Z,13.02
2019-05-22T07:53:32.545Z,12.79
2019-05-22T07:56:08.649Z,12.80
2019-05-22T07:58:40.786Z,12.86
2019-05-22T08:01:12.134Z,12.77
2019-05-22T08:03:44.903Z,12.82
2019-05-22T08:06:16.639Z,12.72
2019-05-22T08:08:49.215Z,12.64
2019-05-22T08:11:20.917Z,12.50
2019-05-22T08:13:52.274Z,12.61
2019-05-22T08:16:24.120Z,12.47
2019-05-22T08:18:55.464Z,12.47
2019-05-22T08:21:27.053Z,12.39
2019-05-22T08:23:58.601Z,12.38
2019-05-22T08:26:30.960Z,12.53
2019-05-22T08:29:03.262Z,12.55
2019-05-22T08:31:34.804Z,12.59
2019-05-22T08:34:06.445Z,12.70
2019-05-22T08:36:38.694Z,12.66
2019-05-22T08:39:11.424Z,12.69
2019-05-22T08:41:43.575Z,12.80
2019-05-22T08:44:17.537Z,12.51
2019-05-22T08:46:48.620Z,12.40
2019-05-22T08:49:21.600Z,12.26
2019-05-22T08:51:52.922Z,12.26
2019-05-22T08:54:24.275Z,12.43
2019-05-22T08:56:56.324Z,12.34
2019-05-22T08:59:27.346Z,12.31
2019-05-22T09:01:58.691Z,12.20
2019-05-22T09:04:29.963Z,12.34
2019-05-22T09:07:01.344Z,12.46
2019-05-22T09:09:32.332Z,12.44
2019-05-22T09:12:04.986Z,12.58
2019-05-22T09:14:36.042Z,12.40
2019-05-22T09:17:07.586Z,12.66
2019-05-22T09:19:38.618Z,12.67
2019-05-22T09:22:09.774Z,12.70
2019-05-22T09:24:43.241Z,12.86
2019-05-22T09:27:15.003Z,12.99
2019-05-22T09:29:46.379Z,13.05
2019-05-22T09:32:18.732Z,12.81
2019-05-22T09:34:50.586Z,12.63
2019-05-22T09:37:22.406Z,12.51
2019-05-22T09:39:53.675Z,12.69
2019-05-22T09:42:26.602Z,12.70
2019-05-22T09:44:57.795Z,12.85
2019-05-22T09:47:29.196Z,12.82
2019-05-22T09:50:00.904Z,12.86
2019-05-22T09:52:35.918Z,12.97
2019-05-22T09:55:08.465Z,13.01
2019-05-22T09:57:39.719Z,12.90
2019-05-22T10:00:13.213Z,12.99
2019-05-22T10:02:44.389Z,12.72
2019-05-22T10:05:17.455Z,12.54
2019-05-22T10:08:00.531Z,12.41
2019-05-22T10:10:22.804Z,12.58
2019-05-22T10:12:54.585Z,12.70
2019-05-22T10:15:26.426Z,12.42
2019-05-22T10:17:57.748Z,12.33
2019-05-22T10:20:29.561Z,12.43
2019-05-22T10:23:14.703Z,12.47
2019-05-22T10:25:34.194Z,12.61
2019-05-22T10:28:07.177Z,12.55
2019-05-22T10:30:38.663Z,12.61
2019-05-22T10:33:09.917Z,12.57
2019-05-22T10:35:41.061Z,12.27
2019-05-22T10:38:12.330Z,12.41
2019-05-22T10:40:43.579Z,12.26
2019-05-22T10:43:14.571Z,12.29
2019-05-22T10:45:45.611Z,12.22
2019-05-22T10:48:17.026Z,12.33
2019-05-22T10:50:48.198Z,12.48
2019-05-22T10:53:32.820Z,12.51
2019-05-22T10:55:52.957Z,12.62
2019-05-22T10:58:23.972Z,12.73
2019-05-22T11:00:55.129Z,12.76
2019-05-22T11:03:26.603Z,12.78
2019-05-22T11:06:07.300Z,12.98
2019-05-22T11:08:34.337Z,13.09
2019-05-22T11:11:04.687Z,13.12
2019-05-22T11:13:36.892Z,13.15
2019-05-22T11:16:08.919Z,12.92
2019-05-22T11:18:40.325Z,13.00
2019-05-22T11:21:12.454Z,12.62
2019-05-22T11:23:51.951Z,12.72
2019-05-22T11:26:16.901Z,12.85
2019-05-22T11:28:48.614Z,12.65
2019-05-22T11:31:20.101Z,13.00
2019-05-22T11:33:51.171Z,12.94
2019-05-22T11:36:24.099Z,12.73
2019-05-22T11:38:55.499Z,12.73
2019-05-22T11:41:27.006Z,12.80
2019-05-22T11:43:58.123Z,12.99
2019-05-22T11:46:29.542Z,12.95
2019-05-22T11:49:01.731Z,13.00
2019-05-22T11:51:32.798Z,12.86
2019-05-22T11:54:09.389Z,12.92
2019-05-22T11:56:37.908Z,13.03
2019-05-22T11:59:11.288Z,12.76
2019-05-22T12:01:42.722Z,12.84
2019-05-22T12:04:14.060Z,12.71
2019-05-22T12:06:45.254Z,12.91
2019-05-22T12:09:16.503Z,12.73
2019-05-22T12:11:48.254Z,12.63
2019-05-22T12:14:19.786Z,12.81
2019-05-22T12:16:53.154Z,13.17
2019-05-22T12:19:24.508Z,13.46
2019-05-22T12:21:55.843Z,13.85
2019-05-22T12:24:30.270Z,13.87
2019-05-22T12:26:59.752Z,14.24
2019-05-22T12:29:31.215Z,13.99
2019-05-22T12:32:02.328Z,13.82
2019-05-22T12:34:33.886Z,14.14
2019-05-22T12:37:05.510Z,14.36
2019-05-22T12:39:38.986Z,14.20
2019-05-22T12:42:10.759Z,14.41
2019-05-22T12:44:42.118Z,14.47
2019-05-22T12:47:14.118Z,14.33
2019-05-22T12:49:45.399Z,14.61
2019-05-22T12:52:16.799Z,14.03
2019-05-22T12:54:52.416Z,13.99
2019-05-22T12:57:20.919Z,13.97
2019-05-22T12:59:53.800Z,14.09
2019-05-22T13:02:25.361Z,14.12
2019-05-22T13:04:56.966Z,14.02
2019-05-22T13:07:28.403Z,14.30
2019-05-22T13:09:59.572Z,14.26
2019-05-22T13:12:31.443Z,14.50
2019-05-22T13:15:09.891Z,14.50
2019-05-22T13:17:36.243Z,14.53
2019-05-22T13:20:08.311Z,14.39
2019-05-22T13:22:43.758Z,14.44
2019-05-22T13:25:17.196Z,14.64
2019-05-22T13:27:48.924Z,14.52
2019-05-22T13:30:23.151Z,14.58
2019-05-22T13:32:57.047Z,14.57
2019-05-22T13:35:29.583Z,14.89
2019-05-22T13:38:02.766Z,15.04
2019-05-22T13:40:34.601Z,14.84
2019-05-22T13:43:06.032Z,14.86
2019-05-22T13:45:37.668Z,15.16
2019-05-22T13:48:09.137Z,15.11
2019-05-22T13:50:40.555Z,15.10
2019-05-22T13:53:13.292Z,14.75
2019-05-22T13:55:45.530Z,14.82
2019-05-22T13:58:17.161Z,15.07
2019-05-22T14:00:49.164Z,15.16
2019-05-22T14:03:20.818Z,14.87
2019-05-22T14:05:52.333Z,14.89
2019-05-22T14:08:23.831Z,14.88
2019-05-22T14:10:56.302Z,14.61
2019-05-22T14:13:27.835Z,14.79
2019-05-22T14:15:59.187Z,14.89
2019-05-22T14:18:31.306Z,14.70
2019-05-22T14:21:02.616Z,14.75
2019-05-22T14:23:34.057Z,14.82
2019-05-22T14:26:05.665Z,14.87
2019-05-22T14:28:37.848Z,14.98
2019-05-22T14:31:08.977Z,15.01
2019-05-22T14:33:40.756Z,15.23
2019-05-22T14:36:12.583Z,15.28
2019-05-22T14:38:43.938Z,15.49
2019-05-22T14:41:15.451Z,15.64
2019-05-22T14:43:46.570Z,15.47
2019-05-22T14:46:17.762Z,15.52
2019-05-22T14:48:49.096Z,15.39
2019-05-22T14:51:21.370Z,15.91
2019-05-22T14:53:54.546Z,15.84
2019-05-22T14:56:26.305Z,15.80
2019-05-22T14:58:57.404Z,16.04
2019-05-22T15:04:06.951Z,15.50
2019-05-22T15:06:38.566Z,15.52
2019-05-22T15:09:10.456Z,15.64
2019-05-22T15:11:41.711Z,15.75
2019-05-22T15:14:12.966Z,15.79
2019-05-22T15:16:44.681Z,16.12
2019-05-22T15:19:15.781Z,15.79
2019-05-22T15:21:46.834Z,15.75
2019-05-22T15:24:18.384Z,15.56
2019-05-22T15:26:49.665Z,15.83
2019-05-22T15:29:21.101Z,15.89
2019-05-22T15:31:52.207Z,15.83
2019-05-22T15:34:24.081Z,15.71
2019-05-22T15:36:55.356Z,15.58
2019-05-22T15:39:28.768Z,15.93
2019-05-22T15:42:00.425Z,16.13
2019-05-22T15:44:32.161Z,16.02
2019-05-22T15:47:03.512Z,16.40
2019-05-22T15:49:35.087Z,16.56
2019-05-22T15:52:09.287Z,16.75
2019-05-22T15:54:40.373Z,16.82
2019-05-22T15:57:12.803Z,17.12
2019-05-22T15:59:45.103Z,17.18
2019-05-22T16:02:20.979Z,16.74
2019-05-22T16:04:51.962Z,16.97
2019-05-22T16:07:23.280Z,16.89
2019-05-22T16:09:54.364Z,17.54
2019-05-22T16:12:26.065Z,16.75
2019-05-22T16:14:59.133Z,16.80
2019-05-22T16:17:46.856Z,16.77
2019-05-22T16:20:21.246Z,16.79
2019-05-22T16:22:54.759Z,16.52
2019-05-22T16:25:26.339Z,16.76
2019-05-22T16:27:57.795Z,16.72
2019-05-22T16:30:30.260Z,16.58
2019-05-22T16:33:03.709Z,16.53
2019-05-22T16:35:34.996Z,16.19
2019-05-22T16:38:06.097Z,16.26
2019-05-22T16:40:37.415Z,16.16
2019-05-22T16:43:09.534Z,16.05
2019-05-22T16:45:40.821Z,16.13
2019-05-22T16:48:27.621Z,16.34
2019-05-22T16:50:45.151Z,16.42
2019-05-22T16:53:17.836Z,16.48
2019-05-22T16:55:50.248Z,16.20
2019-05-22T16:58:21.651Z,16.49
2019-05-22T17:00:56.714Z,16.65
2019-05-22T17:03:29.613Z,16.64
2019-05-22T17:06:00.879Z,16.61
2019-05-22T17:08:32.269Z,16.48
2019-05-22T17:11:03.734Z,16.27
2019-05-22T17:13:34.909Z,16.36
2019-05-22T17:16:06.864Z,16.39
2019-05-22T17:18:47.439Z,16.30
2019-05-22T17:21:11.516Z,16.33
2019-05-22T17:23:43.434Z,16.26
2019-05-22T17:26:14.846Z,16.15
2019-05-22T17:28:46.011Z,16.15
2019-05-22T17:31:18.246Z,16.00
2019-05-22T17:33:49.263Z,15.95
2019-05-22T17:36:21.442Z,15.94
2019-05-22T17:38:52.814Z,16.34
2019-05-22T17:41:25.698Z,16.21
2019-05-22T17:43:57.479Z,16.24
2019-05-22T17:46:29.304Z,16.36
2019-05-22T17:49:00.873Z,16.54
2019-05-22T17:51:32.437Z,16.20
2019-05-22T17:54:04.583Z,16.44
2019-05-22T17:56:36.192Z,16.49
2019-05-22T17:59:07.240Z,16.71
2019-05-22T18:01:38.865Z,16.87
2019-05-22T18:04:10.217Z,17.24
2019-05-22T18:06:41.647Z,17.51
2019-05-22T18:09:13.039Z,18.01
2019-05-22T18:11:44.532Z,16.98
2019-05-22T18:14:16.131Z,16.24
2019-05-22T18:16:47.522Z,16.13
2019-05-22T18:19:19.077Z,16.07
2019-05-22T18:21:50.424Z,16.02
2019-05-22T18:24:22.447Z,15.94
2019-05-22T18:26:54.430Z,15.85
2019-05-22T18:29:26.490Z,15.75
2019-05-22T18:32:02.311Z,15.67
2019-05-22T18:34:33.409Z,15.64
2019-05-22T18:37:04.931Z,15.65
2019-05-22T18:39:36.528Z,15.70
2019-05-22T18:42:08.006Z,15.64
2019-05-22T18:44:39.138Z,15.63
2019-05-22T18:47:12.200Z,15.60
2019-05-22T18:49:43.256Z,15.51
2019-05-22T18:52:15.072Z,15.55
2019-05-22T18:54:46.253Z,15.44
2019-05-22T18:57:17.535Z,15.51
2019-05-22T18:59:48.780Z,15.36
2019-05-22T19:02:20.974Z,15.34
2019-05-22T19:04:52.591Z,15.28
2019-05-22T19:07:30.740Z,15.26
2019-05-22T19:10:02.800Z,15.12
2019-05-22T19:12:35.272Z,15.07
2019-05-22T19:15:06.577Z,15.09
2019-05-22T19:17:38.135Z,15.03
2019-05-22T19:20:10.641Z,15.10
2019-05-22T19:22:58.047Z,14.97
2019-05-22T19:25:15.814Z,14.87
2019-05-22T19:27:47.013Z,14.85
2019-05-22T19:30:20.743Z,14.74
2019-05-22T19:32:52.609Z,14.77
2019-05-22T19:35:23.730Z,14.81
2019-05-22T19:37:54.959Z,14.78
2019-05-22T19:40:26.227Z,14.73
2019-05-22T19:42:58.717Z,14.47
2019-05-22T19:45:31.035Z,14.45
2019-05-22T19:48:02.857Z,14.29
2019-05-22T19:50:34.636Z,14.25
2019-05-22T19:53:18.131Z,14.17
2019-05-22T19:55:38.620Z,14.12
2019-05-22T19:58:10.730Z,14.14
2019-05-22T20:00:43.159Z,14.14
2019-05-22T20:03:16.344Z,14.00
2019-05-22T20:05:47.533Z,13.81
2019-05-22T20:08:18.994Z,13.87
2019-05-22T20:10:51.621Z,13.76
2019-05-22T20:13:23.619Z,13.92
2019-05-22T20:15:55.372Z,13.63
2019-05-22T20:18:26.954Z,13.55
2019-05-22T20:20:58.589Z,13.45
2019-05-22T20:23:35.745Z,13.55
2019-05-22T20:26:03.375Z,13.69
2019-05-22T20:28:35.725Z,13.62
2019-05-22T20:31:07.550Z,13.48
2019-05-22T20:33:38.851Z,13.41
2019-05-22T20:36:10.774Z,13.43
2019-05-22T20:38:41.987Z,13.38
2019-05-22T20:41:13.869Z,13.24
2019-05-22T20:43:45.892Z,13.22
2019-05-22T20:46:18.677Z,13.15
2019-05-22T20:48:50.622Z,13.20
2019-05-22T20:51:21.796Z,13.05
2019-05-22T20:53:54.782Z,13.00
2019-05-22T20:56:27.912Z,12.99
2019-05-22T20:58:59.653Z,12.86
2019-05-22T21:01:33.249Z,12.93
2019-05-22T21:04:06.335Z,12.81
2019-05-22T21:06:41.518Z,12.94
2019-05-22T21:09:13.804Z,13.07
2019-05-22T21:11:45.161Z,12.78
2019-05-22T21:14:17.135Z,12.64
2019-05-22T21:16:48.261Z,12.57
2019-05-22T21:19:23.587Z,12.48
2019-05-22T21:21:56.550Z,12.45
2019-05-22T21:24:27.866Z,12.50
2019-05-22T21:26:59.045Z,12.31
2019-05-22T21:29:31.074Z,12.34
2019-05-22T21:32:02.994Z,12.33
2019-05-22T21:34:34.496Z,12.23
2019-05-22T21:37:06.528Z,12.15
2019-05-22T21:39:38.542Z,12.10
2019-05-22T21:42:10.301Z,12.10
2019-05-22T21:44:43.069Z,12.03
2019-05-22T21:47:14.854Z,11.91
2019-05-22T21:49:46.954Z,11.95
2019-05-22T21:52:18.618Z,11.93
2019-05-22T21:54:49.939Z,12.06
2019-05-22T21:57:20.989Z,12.39
2019-05-22T21:59:52.589Z,12.09
2019-05-22T22:02:32.827Z,11.90
2019-05-22T22:05:05.015Z,11.80
2019-05-22T22:07:37.066Z,11.84
2019-05-22T22:10:08.130Z,11.79
2019-05-22T22:12:39.833Z,11.73
2019-05-22T22:15:12.368Z,11.62
2019-05-22T22:17:44.446Z,11.46
2019-05-22T22:20:16.772Z,11.46
2019-05-22T22:22:48.986Z,11.51
2019-05-22T22:25:21.480Z,11.58
2019-05-22T22:27:52.881Z,11.53
2019-05-22T22:30:29.930Z,11.62
2019-05-22T22:33:04.281Z,11.89
2019-05-22T22:35:35.774Z,11.99
2019-05-22T22:38:09.178Z,11.68
2019-05-22T22:40:41.634Z,11.66
2019-05-22T22:43:14.136Z,11.66
2019-05-22T22:46:06.060Z,11.75
2019-05-22T22:48:39.588Z,12.17
2019-05-22T22:51:11.874Z,11.85
2019-05-22T22:53:43.743Z,11.98
2019-05-22T22:56:15.095Z,12.17
2019-05-22T22:58:46.237Z,12.28
2019-05-22T23:01:23.167Z,12.15
2019-05-22T23:03:56.618Z,12.23
2019-05-22T23:06:28.839Z,11.92
2019-05-22T23:09:00.792Z,12.01
2019-05-22T23:11:34.196Z,12.11
2019-05-22T23:14:06.068Z,12.08
2019-05-22T23:16:37.359Z,12.07
2019-05-22T23:19:44.368Z,12.00
2019-05-22T23:22:17.668Z,12.00
2019-05-22T23:24:51.967Z,12.23
2019-05-22T23:27:25.301Z,11.93
2019-05-22T23:29:57.664Z,11.78
2019-05-22T23:32:31.096Z,11.94
2019-05-22T23:35:02.621Z,12.09
2019-05-22T23:37:35.303Z,12.21
2019-05-22T23:40:08.250Z,11.94
2019-05-22T23:42:41.548Z,11.50
2019-05-22T23:45:15.243Z,11.86
2019-05-22T23:48:03.958Z,11.75
2019-05-22T23:50:38.114Z,11.89
2019-05-22T23:53:12.586Z,11.69
2019-05-22T23:55:44.162Z,11.76
2019-05-22T23:58:16.900Z,11.71
